Horseshoe Bay, TX

3:42 AM MDT on July 26, 2017 (GMT -0600)
Horseshoe Bay

Weather History for KDZB - March, 2014

Change the Weather History Date:

Tuesday, March 18, 2014

  Actual Average (KBMQ) Record (KBMQ)
Temperature  
Mean Temperature 68 °F -  
Max Temperature 85 °F 66 °F 84 °F (2014)
Min Temperature 52 °F 46 °F 39 °F (2001)
Cooling Degree Days 4    
Growing Degree Days 18 (Base 50)    
Moisture  
Dew Point 34 °F    
Average Humidity 31    
Maximum Humidity 67    
Minimum Humidity 15    
Precipitation  
Precipitation 0.00 in - - ()
Sea Level Pressure  
Sea Level Pressure 29.71 in    
Wind  
Wind Speed 7 mph (South)    
Max Wind Speed 14 mph    
Max Gust Speed 25 mph    
Visibility 10 miles    
Events      
Averages and records for this station are not official NWS values.
T = Trace of Precipitation, MM = Missing Value Source: NWS Daily Summary

Daily Weather History Graph

Daily Weather History Graph

Search for Another Location

Airport or City:

Trip Planner

Search our weather history database for the weather conditions in past years. The results will help you decide how hot, cold, wet, or windy it might be!

Date:

Astronomy

Mar. 18, 2014 Rise Set
Actual Time 6:39 AM MDT 6:43 PM MDT
Civil Twilight 6:15 AM MDT 7:07 PM MDT
Nautical Twilight 5:47 AM MDT 7:35 PM MDT
Astronomical Twilight 5:19 AM MDT 8:03 PM MDT
Moon 8:51 PM MDT (3/18) 7:39 AM MDT (3/18)
Length of Visible Light 12h 52m
Length of Day
12h 04m
Waning Gibbous, 96% of the Moon is Illuminated
Mar 18
Waning Gibbous
Mar 23
Last Quarter
Mar 30
New
Apr 7
First Quarter
Apr 15
Full

Hourly Weather History & Observations

Time (MDT) Temp. Dew Point Humidity Pressure Visibility Wind Dir Wind Speed Gust Speed Precip Events Conditions
12:15 AM 54.1 °F 24.8 °F 32% 29.72 in 10.0 mi South 8.1 mph - N/A   Clear
12:35 AM 54.5 °F 24.4 °F 31% 29.72 in 10.0 mi South 9.2 mph - N/A   Clear
12:55 AM 53.8 °F 24.4 °F 32% 29.72 in 10.0 mi South 9.2 mph 18.4 mph N/A   Clear
1:15 AM 54.0 °F 24.1 °F 31% 29.72 in 10.0 mi South 6.9 mph - N/A   Clear
1:35 AM 54.0 °F 24.4 °F 32% 29.72 in 10.0 mi SSE 5.8 mph - N/A   Clear
1:55 AM 53.2 °F 24.3 °F 32% 29.72 in 10.0 mi South 5.8 mph - N/A   Clear
2:15 AM 53.6 °F 24.6 °F 33% 29.71 in 10.0 mi South 9.2 mph - N/A   Clear
2:35 AM 53.6 °F 24.8 °F 33% 29.70 in 10.0 mi Calm Calm - N/A   Clear
2:55 AM 53.6 °F 24.8 °F 33% 29.69 in 10.0 mi South 6.9 mph - N/A   Clear
3:15 AM 53.1 °F 25.0 °F 34% 29.68 in 10.0 mi South 4.6 mph - N/A   Clear
3:35 AM 53.6 °F 25.2 °F 33% 29.67 in 10.0 mi Calm Calm - N/A   Clear
3:55 AM 53.6 °F 25.5 °F 34% 29.67 in 10.0 mi Calm Calm - N/A   Clear
4:15 AM 52.2 °F 26.1 °F 36% 29.66 in 10.0 mi East 4.6 mph - N/A   Clear
4:35 AM 52.5 °F 26.6 °F 37% 29.66 in 10.0 mi ENE 3.5 mph - N/A   Clear
4:55 AM 52.7 °F 27.5 °F 38% 29.67 in 10.0 mi Calm Calm - N/A   Clear
5:15 AM 53.6 °F 27.9 °F 37% 29.67 in 10.0 mi South 4.6 mph - N/A   Clear
5:35 AM 53.2 °F 28.9 °F 39% 29.67 in 10.0 mi South 6.9 mph - N/A   Clear
5:55 AM 52.9 °F 29.3 °F 40% 29.68 in 10.0 mi NNE 3.5 mph - N/A   Clear
6:15 AM 53.4 °F 29.8 °F 40% 29.68 in 10.0 mi Calm Calm - N/A   Clear
6:35 AM 52.9 °F 31.1 °F 43% 29.68 in 10.0 mi SE 5.8 mph - N/A   Clear
6:55 AM 53.1 °F 32.0 °F 45% 29.69 in 10.0 mi NNW 3.5 mph - N/A   Clear
7:15 AM 53.8 °F 32.9 °F 45% 29.69 in 10.0 mi South 3.5 mph - N/A   Clear
7:35 AM 55.6 °F 33.3 °F 43% 29.71 in 10.0 mi SSW 5.8 mph - N/A   Clear
7:55 AM 57.4 °F 34.3 °F 42% 29.71 in 10.0 mi SW 6.9 mph - N/A   Clear
8:15 AM 58.8 °F 34.5 °F 40% 29.71 in 10.0 mi South 9.2 mph 21.9 mph N/A   Clear
8:35 AM 60.8 °F 34.5 °F 37% 29.72 in 10.0 mi SSW 9.2 mph 17.3 mph N/A   Clear
8:55 AM 62.4 °F 34.7 °F 36% 29.74 in 10.0 mi SSW 10.4 mph 17.3 mph N/A   Clear
9:15 AM 64.6 °F 35.4 °F 34% 29.74 in 10.0 mi SW 13.8 mph 25.3 mph N/A   Clear
9:35 AM 66.6 °F 36.5 °F 33% 29.74 in 10.0 mi South 10.4 mph 17.3 mph N/A   Clear
9:55 AM 68.5 °F 37.8 °F 32% 29.75 in 10.0 mi SSW 4.6 mph - N/A   Clear
10:15 AM 71.1 °F 38.8 °F 31% 29.74 in 10.0 mi South 5.8 mph - N/A   Clear
10:35 AM 70.7 °F 38.5 °F 31% 29.74 in 10.0 mi SSW 8.1 mph 18.4 mph N/A   Clear
10:55 AM 72.9 °F 39.0 °F 29% 29.74 in 10.0 mi SSW 8.1 mph 18.4 mph N/A   Clear
11:15 AM 74.8 °F 39.2 °F 28% 29.74 in 10.0 mi South 10.4 mph - N/A   Clear
11:35 AM 77.0 °F 38.1 °F 25% 29.73 in 10.0 mi SSW 9.2 mph 20.7 mph N/A   Clear
11:55 AM 78.8 °F 37.2 °F 22% 29.73 in 10.0 mi SSW 12.7 mph 21.9 mph N/A   Clear
12:15 PM 79.7 °F 36.3 °F 21% 29.71 in 10.0 mi South 11.5 mph 18.4 mph N/A   Clear
12:35 PM 81.3 °F 36.0 °F 20% 29.71 in 10.0 mi SSW 10.4 mph 20.7 mph N/A   Clear
12:55 PM 82.4 °F 33.8 °F 17% 29.70 in 10.0 mi SW 9.2 mph 20.7 mph N/A   Clear
1:15 PM 83.5 °F 34.0 °F 17% 29.68 in 10.0 mi SSW 12.7 mph 19.6 mph N/A   Clear
1:35 PM 84.4 °F 33.1 °F 16% 29.68 in 10.0 mi SSW 9.2 mph 19.6 mph N/A   Clear
1:55 PM 84.9 °F 32.5 °F 15% 29.67 in 10.0 mi SSW 4.6 mph 16.1 mph N/A   Clear
2:15 PM 85.5 °F 33.8 °F 16% 29.66 in 10.0 mi SW 10.4 mph 18.4 mph N/A   Clear
2:35 PM 85.1 °F 33.4 °F 16% 29.65 in 10.0 mi South 11.5 mph 19.6 mph N/A   Clear
2:55 PM 85.8 °F 33.6 °F 15% 29.65 in 10.0 mi South 10.4 mph 19.6 mph N/A   Clear
3:15 PM 85.6 °F 34.0 °F 16% 29.65 in 10.0 mi South 9.2 mph 24.2 mph N/A   Clear
3:35 PM 85.6 °F 34.5 °F 16% 29.65 in 10.0 mi South 10.4 mph 18.4 mph N/A   Clear
3:55 PM 85.8 °F 35.8 °F 17% 29.65 in 10.0 mi South 10.4 mph 19.6 mph N/A   Clear
4:15 PM 85.8 °F 34.0 °F 16% 29.65 in 10.0 mi South 12.7 mph 23.0 mph N/A   Clear
4:35 PM 85.5 °F 32.7 °F 15% 29.65 in 10.0 mi SSW 10.4 mph 18.4 mph N/A   Clear
4:55 PM 85.1 °F 33.3 °F 16% 29.65 in 10.0 mi South 13.8 mph 20.7 mph N/A   Clear
5:15 PM 84.2 °F 34.5 °F 17% 29.65 in 10.0 mi South 10.4 mph 21.9 mph N/A   Clear
5:35 PM 83.5 °F 32.7 °F 16% 29.66 in 10.0 mi South 10.4 mph 17.3 mph N/A   Clear
5:55 PM 81.7 °F 33.3 °F 17% 29.66 in 10.0 mi South 10.4 mph 16.1 mph N/A   Clear
6:15 PM 80.6 °F 34.7 °F 19% 29.67 in 10.0 mi South 9.2 mph 18.4 mph N/A   Clear
6:35 PM 79.3 °F 34.5 °F 20% 29.68 in 10.0 mi South 11.5 mph 17.3 mph N/A   Clear
6:55 PM 77.9 °F 34.3 °F 21% 29.69 in 10.0 mi South 10.4 mph 18.4 mph N/A   Clear
7:15 PM 75.7 °F 35.2 °F 23% 29.70 in 10.0 mi South 9.2 mph - N/A   Clear
7:35 PM 74.3 °F 36.1 °F 25% 29.70 in 10.0 mi South 8.1 mph - N/A   Clear
7:55 PM 73.4 °F 36.1 °F 26% 29.71 in 10.0 mi South 6.9 mph - N/A   Clear
8:15 PM 73.2 °F 36.3 °F 26% 29.72 in 10.0 mi South 8.1 mph - N/A   Clear
8:35 PM 72.3 °F 37.4 °F 28% 29.74 in 10.0 mi SSE 5.8 mph - N/A   Clear
8:55 PM 72.0 °F 38.7 °F 30% 29.75 in 10.0 mi SSE 3.5 mph - N/A   Clear
9:15 PM 67.3 °F 38.3 °F 35% 29.76 in 10.0 mi ESE 3.5 mph - N/A   Clear
9:35 PM 67.1 °F 40.1 °F 37% 29.77 in 10.0 mi SSE 5.8 mph - N/A   Clear
9:55 PM 67.5 °F 42.8 °F 41% 29.78 in 10.0 mi South 3.5 mph - N/A   Clear
10:15 PM 68.2 °F 50.0 °F 52% 29.78 in 10.0 mi South 5.8 mph - N/A   Clear
10:35 PM 66.2 °F 48.0 °F 52% 29.83 in 10.0 mi SSE 4.6 mph 17.3 mph N/A   Clear
10:55 PM 65.1 °F 47.8 °F 54% 29.86 in 10.0 mi Calm Calm - N/A   Clear
11:15 PM 63.7 °F 49.1 °F 59% 29.85 in 10.0 mi SE 4.6 mph - N/A   Clear
11:35 PM 61.9 °F 48.7 °F 62% 29.87 in 10.0 mi North 5.8 mph - N/A   Clear
11:55 PM 59.9 °F 48.9 °F 67% 29.87 in 10.0 mi Calm Calm - N/A   Clear